createdAt,value
2018-08-14T00:00:49.932Z,96800.02
2018-08-14T00:05:45.137Z,96797.20
2018-08-14T00:10:39.872Z,96806.84
2018-08-14T00:15:34.550Z,96803.20
2018-08-14T00:20:30.098Z,96817.44
2018-08-14T00:25:24.792Z,96813.15
2018-08-14T00:30:21.458Z,96811.14
2018-08-14T00:35:16.204Z,96812.95
2018-08-14T00:40:15.221Z,96804.83
2018-08-14T00:45:14.159Z,96811.81
2018-08-14T00:50:13.119Z,96812.14
2018-08-14T00:55:09.748Z,96820.43
2018-08-14T01:00:05.644Z,96817.27
2018-08-14T01:05:00.266Z,96816.78
2018-08-14T01:09:54.946Z,96814.77
2018-08-14T01:14:49.561Z,96821.76
2018-08-14T01:19:44.230Z,96815.30
2018-08-14T01:24:38.903Z,96817.61
2018-08-14T01:29:33.552Z,96818.10
2018-08-14T01:34:28.177Z,96817.11
2018-08-14T01:39:22.876Z,96831.70
2018-08-14T01:44:17.523Z,96824.25
2018-08-14T01:49:12.167Z,96828.22
2018-08-14T01:54:07.731Z,96822.73
2018-08-14T01:59:02.487Z,96833.69
2018-08-14T02:03:57.394Z,96823.73
2018-08-14T02:08:52.075Z,96825.39
2018-08-14T02:13:46.884Z,96827.05
2018-08-14T02:18:41.508Z,96827.41
2018-08-14T02:23:36.148Z,96824.42
2018-08-14T02:28:30.795Z,96825.08
2018-08-14T02:33:25.450Z,96822.41
2018-08-14T02:38:20.051Z,96825.42
2018-08-14T02:43:14.667Z,96830.72
2018-08-14T02:48:10.400Z,96836.19
2018-08-14T02:53:06.363Z,96832.36
2018-08-14T02:58:01.127Z,96835.81
2018-08-14T03:02:56.143Z,96834.34
2018-08-14T03:07:50.981Z,96841.32
2018-08-14T03:12:45.619Z,96828.36
2018-08-14T03:17:40.247Z,96832.70
2018-08-14T03:22:35.027Z,96829.84
2018-08-14T03:27:29.666Z,96833.34
2018-08-14T03:32:24.351Z,96841.45
2018-08-14T03:37:19.051Z,96851.09
2018-08-14T03:42:13.616Z,96843.59
2018-08-14T03:47:09.260Z,96853.37
2018-08-14T03:52:04.256Z,96863.33
2018-08-14T03:56:58.967Z,96863.81
2018-08-14T04:01:53.677Z,96857.44
2018-08-14T04:06:48.335Z,96864.72
2018-08-14T04:11:43.016Z,96861.01
2018-08-14T04:16:38.399Z,96863.86
2018-08-14T04:21:33.034Z,96875.34
2018-08-14T04:26:27.695Z,96885.48
2018-08-14T04:31:22.368Z,96887.28
2018-08-14T04:36:16.979Z,96888.70
2018-08-14T04:41:11.676Z,96897.48
2018-08-14T04:46:06.323Z,96900.28
2018-08-14T04:51:00.920Z,96903.14
2018-08-14T04:55:55.539Z,96899.36
2018-08-14T05:00:50.120Z,96913.95
2018-08-14T05:05:44.758Z,96922.78
2018-08-14T05:10:39.474Z,96931.11
2018-08-14T05:15:34.073Z,96931.64
2018-08-14T05:20:28.799Z,96932.91
2018-08-14T05:25:23.447Z,96940.59
2018-08-14T05:30:18.547Z,96949.05
2018-08-14T05:35:13.363Z,96947.88
2018-08-14T05:40:08.800Z,96950.19
2018-08-14T05:45:03.514Z,96955.88
2018-08-14T05:49:58.201Z,96964.00
2018-08-14T05:54:52.807Z,96972.14
2018-08-14T05:59:47.524Z,96974.45
2018-08-14T06:04:42.188Z,96980.76
2018-08-14T06:09:36.822Z,96979.90
2018-08-14T06:14:31.462Z,96981.23
2018-08-14T06:19:26.118Z,96981.41
2018-08-14T06:24:20.763Z,96986.91
2018-08-14T06:29:15.428Z,96994.05
2018-08-14T06:34:10.108Z,96998.86
2018-08-14T06:39:07.801Z,96999.19
2018-08-14T06:44:02.529Z,97002.33
2018-08-14T06:48:57.211Z,96999.48
2018-08-14T06:53:51.879Z,97011.66
2018-08-14T06:58:46.563Z,97012.00
2018-08-14T07:03:41.324Z,97020.66
2018-08-14T07:08:36.001Z,97025.45
2018-08-14T07:13:30.680Z,97022.47
2018-08-14T07:18:27.481Z,97020.18
2018-08-14T07:23:22.194Z,97015.67
2018-08-14T07:28:17.170Z,97021.41
2018-08-14T07:33:11.861Z,97020.21
2018-08-14T07:38:06.915Z,97019.98
2018-08-14T07:43:01.625Z,97023.27
2018-08-14T07:47:56.328Z,97029.04
2018-08-14T07:52:51.185Z,97036.53
2018-08-14T07:57:46.043Z,97037.63
2018-08-14T08:02:40.962Z,97035.30
2018-08-14T08:07:35.972Z,97048.34
2018-08-14T08:12:31.676Z,97043.27
2018-08-14T08:17:26.663Z,97048.33
2018-08-14T08:22:21.760Z,97040.59
2018-08-14T08:27:16.808Z,97040.41
2018-08-14T08:32:11.725Z,97040.87
2018-08-14T08:37:06.873Z,97039.45
2018-08-14T08:42:01.925Z,97046.28
2018-08-14T08:46:56.997Z,97042.14
2018-08-14T08:51:52.174Z,97042.13
2018-08-14T08:56:47.144Z,97042.03
2018-08-14T09:01:42.137Z,97042.95
2018-08-14T09:06:37.101Z,97049.01
2018-08-14T09:11:32.301Z,97055.46
2018-08-14T09:16:27.301Z,97054.62
2018-08-14T09:21:22.211Z,97064.16
2018-08-14T09:26:17.128Z,97055.17
2018-08-14T09:31:11.978Z,97058.09
2018-08-14T09:36:06.907Z,97047.31
2018-08-14T09:41:01.821Z,97047.80
2018-08-14T09:45:56.563Z,97045.64
2018-08-14T09:50:51.340Z,97043.42
2018-08-14T09:55:46.295Z,97025.27
2018-08-14T10:00:46.113Z,97015.88
2018-08-14T10:05:46.037Z,97021.95
2018-08-14T10:10:40.836Z,97021.25
2018-08-14T10:15:35.642Z,97019.56
2018-08-14T10:20:30.533Z,97023.33
2018-08-14T10:25:25.211Z,97014.80
2018-08-14T10:30:19.936Z,97022.45
2018-08-14T10:35:15.159Z,97013.11
2018-08-14T10:40:13.110Z,97009.72
2018-08-14T10:45:11.741Z,97001.95
2018-08-14T10:50:07.568Z,96995.05
2018-08-14T10:55:02.291Z,96994.51
2018-08-14T10:59:57.079Z,96999.33
2018-08-14T11:04:51.796Z,97001.14
2018-08-14T11:09:47.011Z,97016.68
2018-08-14T11:14:42.387Z,97034.59
2018-08-14T11:19:37.454Z,97031.17
2018-08-14T11:24:32.712Z,97043.27
2018-08-14T11:29:27.536Z,97035.39
2018-08-14T11:34:22.517Z,97041.09
2018-08-14T11:39:17.279Z,97041.31
2018-08-14T11:44:12.115Z,97050.70
2018-08-14T11:49:06.901Z,97053.19
2018-08-14T11:54:01.596Z,97056.85
2018-08-14T11:58:56.288Z,97059.40
2018-08-14T12:03:50.987Z,97064.02
2018-08-14T12:08:45.588Z,97063.56
2018-08-14T12:13:40.295Z,97063.25
2018-08-14T12:18:35.040Z,97046.14
2018-08-14T12:23:29.640Z,97033.42
2018-08-14T12:28:24.382Z,97034.45
2018-08-14T12:33:19.151Z,97039.91
2018-08-14T12:38:14.068Z,97028.28
2018-08-14T12:43:09.029Z,97022.46
2018-08-14T12:48:03.973Z,97028.67
2018-08-14T12:52:58.796Z,97027.34
2018-08-14T12:57:53.743Z,97017.83
2018-08-14T13:02:48.804Z,97011.14
2018-08-14T13:07:43.577Z,97015.23
2018-08-14T13:12:38.768Z,97017.39
2018-08-14T13:17:34.286Z,97013.59
2018-08-14T13:22:29.098Z,97016.97
2018-08-14T13:27:24.553Z,97017.97
2018-08-14T13:32:19.316Z,97020.16
2018-08-14T13:37:14.123Z,97015.88
2018-08-14T13:42:08.933Z,97009.47
2018-08-14T13:47:03.673Z,97008.00
2018-08-14T13:51:58.372Z,97012.67
2018-08-14T13:56:53.218Z,97016.79
2018-08-14T14:01:47.919Z,97024.41
2018-08-14T14:06:42.703Z,97017.80
2018-08-14T14:11:37.521Z,97019.44
2018-08-14T14:16:32.204Z,97030.41
2018-08-14T14:21:27.119Z,97035.46
2018-08-14T14:26:21.924Z,97032.97
2018-08-14T14:31:16.739Z,97027.66
2018-08-14T14:36:11.468Z,97027.94
2018-08-14T14:41:07.736Z,97031.38
2018-08-14T14:46:02.474Z,97033.44
2018-08-14T14:50:57.242Z,97033.92
2018-08-14T14:55:51.955Z,97031.59
2018-08-14T15:00:46.651Z,97029.28
2018-08-14T15:05:41.377Z,97028.36
2018-08-14T15:10:36.100Z,97027.84
2018-08-14T15:15:30.804Z,97027.73
2018-08-14T15:20:27.390Z,97024.70
2018-08-14T15:25:23.156Z,97024.48
2018-08-14T15:30:20.203Z,97025.61
2018-08-14T15:35:14.908Z,97029.07
2018-08-14T15:40:09.594Z,97031.36
2018-08-14T15:45:04.719Z,97032.78
2018-08-14T15:49:59.401Z,97030.20
2018-08-14T15:54:54.284Z,97026.66
2018-08-14T15:59:48.955Z,97024.85
2018-08-14T16:04:43.602Z,97024.19
2018-08-14T16:09:38.331Z,97030.67
2018-08-14T16:14:32.980Z,97039.77
2018-08-14T16:19:27.959Z,97029.20
2018-08-14T16:24:22.614Z,97033.05
2018-08-14T16:29:17.211Z,97031.78
2018-08-14T16:34:11.895Z,97041.36
2018-08-14T16:39:10.211Z,97041.16
2018-08-14T16:44:04.977Z,97046.48
2018-08-14T16:48:59.775Z,97046.84
2018-08-14T16:53:54.421Z,97050.30
2018-08-14T16:58:49.237Z,97048.23
2018-08-14T17:03:43.887Z,97050.58
2018-08-14T17:08:38.570Z,97043.52
2018-08-14T17:13:33.275Z,97065.55
2018-08-14T17:18:27.904Z,97072.34
2018-08-14T17:23:22.588Z,97073.23
2018-08-14T17:28:17.270Z,97075.94
2018-08-14T17:33:11.964Z,97082.93
2018-08-14T17:38:06.688Z,97086.11
2018-08-14T17:43:01.428Z,97091.22
2018-08-14T17:48:01.415Z,97100.48
2018-08-14T17:52:56.147Z,97111.06
2018-08-14T17:57:50.956Z,97121.34
2018-08-14T18:02:46.136Z,97121.66
2018-08-14T18:07:41.636Z,97131.39
2018-08-14T18:12:36.969Z,97139.48
2018-08-14T18:17:31.885Z,97144.04
2018-08-14T18:22:26.849Z,97148.14
2018-08-14T18:27:21.630Z,97158.37
2018-08-14T18:32:16.412Z,97162.14
2018-08-14T18:37:11.117Z,97166.56
2018-08-14T18:42:05.851Z,97173.73
2018-08-14T18:47:00.661Z,97181.87
2018-08-14T18:51:55.313Z,97200.44
2018-08-14T18:56:49.935Z,97195.00
2018-08-14T19:01:44.884Z,97213.06
2018-08-14T19:06:39.575Z,97228.75
2018-08-14T19:11:34.260Z,97237.14
2018-08-14T19:16:28.953Z,97235.28
2018-08-14T19:21:23.652Z,97245.43
2018-08-14T19:26:18.288Z,97252.41
2018-08-14T19:31:13.205Z,97260.55
2018-08-14T19:36:08.158Z,97256.38
2018-08-14T19:41:03.459Z,97262.03
2018-08-14T19:45:58.124Z,97267.72
2018-08-14T19:50:52.876Z,97270.25
2018-08-14T19:55:47.539Z,97275.91
2018-08-14T20:00:42.274Z,97282.06
2018-08-14T20:05:36.989Z,97281.45
2018-08-14T20:10:31.730Z,97294.33
2018-08-14T20:15:31.578Z,97293.34
2018-08-14T20:20:26.353Z,97296.91
2018-08-14T20:25:21.122Z,97298.56
2018-08-14T20:30:18.179Z,97296.27
2018-08-14T20:35:14.897Z,97301.95
2018-08-14T20:40:12.732Z,97305.94
2018-08-14T20:45:10.271Z,97312.25
2018-08-14T20:50:06.903Z,97312.25
2018-08-14T20:55:01.687Z,97308.58
2018-08-14T20:59:56.542Z,97316.64
2018-08-14T21:04:51.300Z,97325.81
2018-08-14T21:09:46.013Z,97321.78
2018-08-14T21:14:40.814Z,97328.70
2018-08-14T21:19:35.589Z,97330.20
2018-08-14T21:24:30.755Z,97332.70
2018-08-14T21:29:25.491Z,97340.34
2018-08-14T21:34:20.321Z,97341.11
2018-08-14T21:39:15.053Z,97349.86
2018-08-14T21:44:09.792Z,97351.66
2018-08-14T21:49:04.560Z,97351.82
2018-08-14T21:53:59.250Z,97357.38
2018-08-14T21:58:53.973Z,97364.48
2018-08-14T22:03:48.679Z,97359.17
2018-08-14T22:08:43.880Z,97362.95
2018-08-14T22:13:39.122Z,97365.80
2018-08-14T22:18:34.047Z,97369.70
2018-08-14T22:23:29.422Z,97379.66
2018-08-14T22:28:24.679Z,97376.68
2018-08-14T22:33:19.741Z,97386.97
2018-08-14T22:38:14.900Z,97388.45
2018-08-14T22:43:10.001Z,97395.41
2018-08-14T22:48:05.062Z,97395.55
2018-08-14T22:53:00.019Z,97406.44
2018-08-14T22:57:54.978Z,97405.34
2018-08-14T23:02:50.146Z,97408.53
2018-08-14T23:07:45.117Z,97410.63
2018-08-14T23:12:40.089Z,97414.02
2018-08-14T23:17:35.038Z,97416.55
2018-08-14T23:22:29.721Z,97411.52
2018-08-14T23:27:24.673Z,97410.97
2018-08-14T23:32:19.513Z,97408.98
2018-08-14T23:37:14.582Z,97411.80
2018-08-14T23:42:09.749Z,97411.78
2018-08-14T23:47:04.797Z,97414.95
2018-08-14T23:51:59.887Z,97405.66
2018-08-14T23:56:54.941Z,97400.56
